Time;durP1;ratioP1;P1;durP2;ratioP2;P2;SDS_P1;SDS_P2;PMS_P1;PMS_P2;Temp;Humidity;BMP_temperature;BMP_pressure;BME280_temperature;BME280_humidity;BME280_pressure;Samples;Min_cycle;Max_cycle;Signal;HPM_P1;HPM_P2
2022/01/01 00:02:07;;;;;;;137.65;76.40;;;;;;;7.28;100.00;100471.53;5070309;28;20044;-70
2022/01/01 00:04:56;;;;;;;134.43;79.40;;;;;;;7.16;100.00;100480.03;5070913;28;20076;-73
2022/01/01 00:07:24;;;;;;;136.57;79.75;;;;;;;7.07;100.00;100483.06;5071066;28;20456;-76
2022/01/01 00:09:52;;;;;;;137.95;81.65;;;;;;;7.05;100.00;100492.88;5070413;28;20539;-74
2022/01/01 00:12:20;;;;;;;145.90;85.03;;;;;;;7.03;100.00;100486.75;5070178;28;20478;-76
2022/01/01 00:14:50;;;;;;;153.77;89.68;;;;;;;7.10;100.00;100498.84;5070721;28;20099;-75
2022/01/01 00:17:18;;;;;;;147.98;86.80;;;;;;;7.21;100.00;100488.66;5071501;28;20060;-76
2022/01/01 00:19:46;;;;;;;147.70;83.53;;;;;;;7.09;100.00;100475.91;5074815;28;20060;-74
2022/01/01 00:22:14;;;;;;;136.50;78.63;;;;;;;7.08;100.00;100474.19;5074114;28;20064;-74
2022/01/01 00:24:43;;;;;;;129.82;77.38;;;;;;;7.11;100.00;100468.75;5074495;28;20112;-76
2022/01/01 00:27:11;;;;;;;142.15;82.47;;;;;;;7.15;100.00;100470.34;5073149;28;20498;-75
2022/01/01 00:29:39;;;;;;;132.85;77.95;;;;;;;7.08;100.00;100452.97;5074243;28;20048;-77
2022/01/01 00:32:09;;;;;;;127.20;71.43;;;;;;;7.12;100.00;100446.59;5073711;28;20055;-78
2022/01/01 00:34:37;;;;;;;119.82;66.60;;;;;;;7.11;100.00;100450.19;5074334;28;20122;-80
2022/01/01 00:37:06;;;;;;;115.07;65.97;;;;;;;7.05;100.00;100453.09;5074219;28;20115;-75
2022/01/01 00:39:35;;;;;;;104.63;60.05;;;;;;;7.09;100.00;100460.84;5073999;28;20594;-74
2022/01/01 00:42:03;;;;;;;96.43;56.58;;;;;;;7.13;100.00;100456.28;5073851;28;20396;-75
2022/01/01 00:44:32;;;;;;;83.90;47.47;;;;;;;7.15;100.00;100454.44;5074439;28;20136;-71
2022/01/01 00:47:01;;;;;;;86.47;48.72;;;;;;;7.13;100.00;100456.28;5074006;28;20066;-77
2022/01/01 00:49:31;;;;;;;75.93;45.10;;;;;;;7.19;100.00;100466.63;5074307;28;20127;-77
2022/01/01 00:51:59;;;;;;;76.72;44.97;;;;;;;7.21;100.00;100470.06;5073453;28;20054;-76
2022/01/01 00:54:28;;;;;;;78.47;45.17;;;;;;;7.22;100.00;100466.50;5073776;28;20044;-75
2022/01/01 00:56:57;;;;;;;83.18;45.70;;;;;;;7.29;100.00;100467.97;5073390;28;20052;-77
2022/01/01 00:59:27;;;;;;;75.97;43.15;;;;;;;7.26;100.00;100462.78;5074197;28;20158;-74
2022/01/01 01:01:56;;;;;;;75.85;45.53;;;;;;;7.17;100.00;100468.50;5074018;28;20127;-73
2022/01/01 01:04:24;;;;;;;76.68;45.33;;;;;;;7.08;100.00;100471.53;5072983;28;20048;-78
2022/01/01 01:06:55;;;;;;;79.68;45.35;;;;;;;7.03;100.00;100465.53;5073706;28;20048;-79
2022/01/01 01:09:23;;;;;;;75.45;44.15;;;;;;;7.08;100.00;100477.69;5073845;28;20418;-76
2022/01/01 01:11:52;;;;;;;71.10;42.55;;;;;;;7.09;100.00;100460.00;5089518;28;20401;-72
2022/01/01 01:14:23;;;;;;;74.68;44.05;;;;;;;7.12;100.00;100457.19;5073694;28;20044;-71
2022/01/01 01:16:53;;;;;;;77.32;44.25;;;;;;;7.21;100.00;100459.47;5074035;28;20420;-72
2022/01/01 01:19:22;;;;;;;72.05;42.20;;;;;;;7.32;100.00;100462.50;5057643;28;20075;-71
2022/01/01 01:21:51;;;;;;;68.10;38.38;;;;;;;7.59;100.00;100465.75;5073508;28;20045;-71
2022/01/01 01:24:23;;;;;;;65.60;39.20;;;;;;;7.72;100.00;100455.44;5073687;28;20075;-73
2022/01/01 01:26:53;;;;;;;64.78;38.25;;;;;;;7.66;100.00;100455.72;5073719;28;20050;-73
2022/01/01 01:29:23;;;;;;;72.53;40.67;;;;;;;7.64;100.00;100468.22;5073004;28;20051;-72
2022/01/01 01:31:51;;;;;;;70.40;39.20;;;;;;;7.57;100.00;100472.06;5073366;28;20135;-70
2022/01/01 01:34:24;;;;;;;60.90;35.42;;;;;;;7.66;100.00;100477.81;5073621;28;20060;-73
2022/01/01 01:36:55;;;;;;;56.70;31.90;;;;;;;7.74;100.00;100470.38;5073621;28;20044;-71
2022/01/01 01:39:25;;;;;;;51.75;31.45;;;;;;;7.73;100.00;100473.97;5073295;28;20104;-72
2022/01/01 01:41:53;;;;;;;45.08;27.17;;;;;;;7.69;100.00;100477.69;5073162;28;20033;-71
2022/01/01 01:44:29;;;;;;;48.40;28.23;;;;;;;7.65;100.00;100480.56;5073427;28;20044;-72
2022/01/01 01:46:59;;;;;;;43.60;25.52;;;;;;;7.71;100.00;100474.94;5072667;28;20051;-71
2022/01/01 01:49:28;;;;;;;47.47;26.67;;;;;;;7.77;100.00;100474.69;5073649;28;20040;-71
2022/01/01 01:51:57;;;;;;;46.85;26.33;;;;;;;7.70;100.00;100475.88;5073016;28;20040;-75
2022/01/01 01:54:27;;;;;;;42.88;25.50;;;;;;;7.60;100.00;100482.53;5073487;28;20093;-71
2022/01/01 01:56:58;;;;;;;34.38;20.50;;;;;;;7.80;100.00;100479.84;5073306;28;20455;-73
2022/01/01 01:59:26;;;;;;;34.08;18.20;;;;;;;8.12;100.00;100480.19;5073286;28;20531;-71
2022/01/01 02:01:55;;;;;;;26.50;16.33;;;;;;;8.52;100.00;100484.53;5072907;28;20039;-71
2022/01/01 02:04:23;;;;;;;30.33;17.10;;;;;;;8.64;100.00;100483.91;5073183;28;20044;-71
2022/01/01 02:06:52;;;;;;;31.48;17.17;;;;;;;8.76;100.00;100487.78;5072956;28;20040;-72
2022/01/01 02:09:20;;;;;;;27.88;15.43;;;;;;;8.74;100.00;100489.66;5056311;28;20144;-73
2022/01/01 02:11:52;;;;;;;31.42;15.35;;;;;;;8.83;100.00;100495.38;5072412;28;20058;-72
2022/01/01 02:14:32;;;;;;;22.95;13.23;;;;;;;8.92;100.00;100487.91;5071350;28;20482;-70
2022/01/01 02:17:10;;;;;;;25.05;14.48;;;;;;;8.83;100.00;100494.53;5072695;28;20049;-73
2022/01/01 02:19:49;;;;;;;20.95;12.38;;;;;;;9.00;100.00;100478.59;5070635;28;20045;-72
2022/01/01 02:22:19;;;;;;;18.85;12.00;;;;;;;8.95;100.00;100472.63;5070498;28;20040;-73
2022/01/01 02:24:47;;;;;;;22.13;12.73;;;;;;;8.94;100.00;100478.03;5072767;28;20119;-73
2022/01/01 02:27:17;;;;;;;20.67;12.48;;;;;;;8.81;100.00;100477.78;5071953;28;20397;-72
2022/01/01 02:29:46;;;;;;;19.55;11.48;;;;;;;8.86;100.00;100478.41;5072550;28;20039;-72
2022/01/01 02:32:16;;;;;;;17.45;10.57;;;;;;;8.84;100.00;100481.16;5071941;28;20040;-71
2022/01/01 02:34:44;;;;;;;16.80;10.70;;;;;;;8.84;100.00;100478.50;5072422;28;20052;-72
2022/01/01 02:37:15;;;;;;;19.00;10.13;;;;;;;8.96;100.00;100485.00;5072313;28;20040;-72
2022/01/01 02:39:45;;;;;;;19.77;11.07;;;;;;;8.84;100.00;100489.13;5072156;28;20054;-73
2022/01/01 02:42:18;;;;;;;15.60;9.85;;;;;;;8.75;100.00;100486.06;5070008;28;20090;-70
2022/01/01 02:44:47;;;;;;;15.45;9.68;;;;;;;8.61;100.00;100492.06;5072520;28;20063;-72
2022/01/01 02:47:15;;;;;;;18.27;10.32;;;;;;;8.55;100.00;100495.84;5072141;28;20040;-70
2022/01/01 02:49:43;;;;;;;20.27;10.93;;;;;;;8.49;100.00;100500.59;5071773;28;20036;-70
2022/01/01 02:52:11;;;;;;;17.48;10.80;;;;;;;8.52;100.00;100501.34;5071368;28;20040;-70
2022/01/01 02:54:40;;;;;;;14.77;8.88;;;;;;;8.85;100.00;100493.50;5071282;28;20128;-67
2022/01/01 02:57:09;;;;;;;19.13;9.85;;;;;;;8.84;100.00;100497.09;5071598;28;20056;-67
2022/01/01 02:59:38;;;;;;;18.55;10.05;;;;;;;8.88;100.00;100488.06;5071629;28;20123;-69
2022/01/01 03:02:06;;;;;;;18.58;10.45;;;;;;;8.85;100.00;100482.00;5070824;28;20533;-71
2022/01/01 03:04:35;;;;;;;18.90;10.02;;;;;;;9.10;100.00;100482.53;5071610;28;20044;-72
2022/01/01 03:07:03;;;;;;;17.65;10.00;;;;;;;9.16;100.00;100484.00;5071954;28;20087;-72
2022/01/01 03:09:34;;;;;;;17.08;9.98;;;;;;;9.14;100.00;100484.06;5071616;28;20082;-72
2022/01/01 03:12:05;;;;;;;19.20;10.60;;;;;;;9.08;100.00;100483.53;5071410;28;20507;-70
2022/01/01 03:14:36;;;;;;;19.15;10.77;;;;;;;9.18;100.00;100483.00;5072765;28;20045;-70
2022/01/01 03:17:05;;;;;;;20.25;10.80;;;;;;;9.12;100.00;100485.97;5072471;28;20044;-71
2022/01/01 03:19:34;;;;;;;19.05;10.82;;;;;;;9.06;100.00;100474.75;5072585;28;20143;-71
2022/01/01 03:22:05;;;;;;;19.00;10.68;;;;;;;9.12;100.00;100480.63;5072054;28;20044;-72
2022/01/01 03:24:40;;;;;;;21.33;11.95;;;;;;;9.15;100.00;100482.28;5072479;28;20123;-71
2022/01/01 03:27:08;;;;;;;24.42;12.32;;;;;;;9.11;100.00;100484.25;5071727;28;20446;-72
2022/01/01 03:29:38;;;;;;;19.55;11.35;;;;;;;9.17;100.00;100493.72;5072239;28;20044;-71
2022/01/01 03:32:07;;;;;;;18.65;10.68;;;;;;;9.15;100.00;100493.78;5071150;28;20048;-71
2022/01/01 03:34:35;;;;;;;21.77;10.32;;;;;;;9.15;100.00;100491.13;5072212;28;20111;-70
2022/01/01 03:37:04;;;;;;;19.02;10.57;;;;;;;9.10;100.00;100487.84;5072026;28;20072;-70
2022/01/01 03:39:33;;;;;;;20.65;11.95;;;;;;;9.05;100.00;100484.53;5070935;28;20076;-70
2022/01/01 03:42:01;;;;;;;19.65;11.35;;;;;;;9.07;100.00;100482.69;5071833;28;20071;-70
2022/01/01 03:44:29;;;;;;;22.20;12.45;;;;;;;9.05;100.00;100489.84;5072188;28;20481;-70
2022/01/01 03:47:09;;;;;;;22.30;11.32;;;;;;;9.12;100.00;100495.75;5071904;28;20040;-70
2022/01/01 03:49:37;;;;;;;22.55;13.10;;;;;;;9.09;100.00;100494.09;5071217;28;20131;-70
2022/01/01 03:52:07;;;;;;;21.60;12.38;;;;;;;9.13;100.00;100487.69;5071275;28;20385;-71
2022/01/01 03:54:35;;;;;;;20.90;11.32;;;;;;;9.15;100.00;100488.44;5072019;28;20062;-70
2022/01/01 03:57:04;;;;;;;23.20;12.18;;;;;;;9.06;100.00;100480.06;5071690;28;20098;-70
2022/01/01 03:59:33;;;;;;;22.88;12.13;;;;;;;9.13;100.00;100484.16;5071810;28;20071;-70
2022/01/01 04:02:03;;;;;;;20.02;11.35;;;;;;;9.22;100.00;100489.00;5071640;28;20146;-73
2022/01/01 04:04:32;;;;;;;20.77;11.30;;;;;;;9.39;100.00;100496.16;5071769;28;20446;-69
2022/01/01 04:07:01;;;;;;;19.80;11.02;;;;;;;9.39;100.00;100489.03;5071946;28;20131;-70
2022/01/01 04:09:29;;;;;;;23.10;12.23;;;;;;;9.47;100.00;100491.28;5071586;28;20442;-70
2022/01/01 04:11:57;;;;;;;22.00;11.18;;;;;;;9.41;100.00;100489.78;5071934;28;20044;-71
2022/01/01 04:14:25;;;;;;;22.38;11.00;;;;;;;9.48;100.00;100494.81;5071651;28;20048;-71
2022/01/01 04:16:54;;;;;;;18.45;11.05;;;;;;;9.61;100.00;100487.91;5071439;28;20425;-71
2022/01/01 04:19:33;;;;;;;17.70;10.68;;;;;;;9.38;100.00;100495.28;5071307;28;20068;-71
2022/01/01 04:22:01;;;;;;;20.02;9.73;;;;;;;9.68;100.00;100491.97;5071638;28;20044;-71
2022/01/01 04:24:29;;;;;;;16.48;10.00;;;;;;;9.71;100.00;100483.81;5071535;28;20098;-71
2022/01/01 04:26:57;;;;;;;16.33;9.05;;;;;;;9.71;100.00;100478.47;5071745;28;20139;-71
2022/01/01 04:29:26;;;;;;;16.13;8.77;;;;;;;9.74;100.00;100481.81;5071587;28;20062;-71
2022/01/01 04:31:54;;;;;;;15.57;9.18;;;;;;;9.60;100.00;100491.50;5071950;28;20079;-71
2022/01/01 04:34:24;;;;;;;15.00;8.73;;;;;;;9.55;100.00;100504.19;5071406;28;20152;-71
2022/01/01 04:37:01;;;;;;;16.00;8.65;;;;;;;9.65;100.00;100513.41;5071833;28;20390;-71
2022/01/01 04:39:30;;;;;;;15.00;8.88;;;;;;;9.56;100.00;100538.75;5071814;28;20441;-71
2022/01/01 04:41:58;;;;;;;14.32;8.27;;;;;;;9.97;100.00;100503.75;5071659;28;20150;-71
2022/01/01 04:44:26;;;;;;;12.70;7.75;;;;;;;10.04;100.00;100523.81;5071177;28;20371;-71
2022/01/01 04:46:57;;;;;;;13.00;7.97;;;;;;;10.02;100.00;100520.34;5071168;28;20040;-71
2022/01/01 04:49:28;;;;;;;15.15;7.53;;;;;;;9.96;100.00;100505.56;5071318;28;20041;-71
2022/01/01 04:51:56;;;;;;;12.55;7.13;;;;;;;10.06;100.00;100515.72;5071353;28;20071;-71
2022/01/01 04:54:25;;;;;;;11.52;6.50;;;;;;;10.09;100.00;100516.41;5071255;28;20392;-71
2022/01/01 04:56:53;;;;;;;13.02;7.55;;;;;;;10.18;100.00;100521.22;5071317;28;20060;-71
2022/01/01 04:59:22;;;;;;;11.77;6.28;;;;;;;10.38;100.00;100516.66;5071146;28;20040;-71
2022/01/01 05:01:50;;;;;;;10.77;5.85;;;;;;;10.44;100.00;100527.84;5071511;28;20043;-72
2022/01/01 05:04:19;;;;;;;9.38;5.28;;;;;;;10.45;100.00;100523.38;5071627;28;20350;-72
2022/01/01 05:06:49;;;;;;;9.75;5.28;;;;;;;10.49;100.00;100530.25;5074719;28;20066;-71
2022/01/01 05:09:18;;;;;;;7.95;4.68;;;;;;;10.55;100.00;100536.13;5074509;28;20044;-72
2022/01/01 05:11:46;;;;;;;8.48;4.80;;;;;;;10.54;100.00;100533.53;5074799;28;20063;-71
2022/01/01 05:14:15;;;;;;;8.52;5.25;;;;;;;10.69;100.00;100535.34;5074905;28;20041;-71
2022/01/01 05:16:44;;;;;;;7.45;4.40;;;;;;;10.66;100.00;100532.84;5075079;28;20535;-72
2022/01/01 05:19:12;;;;;;;8.48;4.18;;;;;;;10.85;100.00;100544.19;5074535;28;20045;-72
2022/01/01 05:21:40;;;;;;;6.50;3.60;;;;;;;11.04;100.00;100543.16;5074721;28;20127;-71
2022/01/01 05:24:12;;;;;;;6.00;3.60;;;;;;;10.87;100.00;100547.63;5074726;28;20470;-72
2022/01/01 05:26:40;;;;;;;8.20;4.03;;;;;;;10.93;100.00;100549.13;5074767;28;20086;-71
2022/01/01 05:29:09;;;;;;;7.53;3.85;;;;;;;10.92;100.00;100554.53;5074204;28;20060;-72
2022/01/01 05:31:37;;;;;;;8.05;4.05;;;;;;;10.95;100.00;100541.00;5074291;28;20044;-73
2022/01/01 05:34:05;;;;;;;8.05;3.80;;;;;;;10.88;100.00;100549.34;5074604;28;20045;-72
2022/01/01 05:36:34;;;;;;;7.78;3.70;;;;;;;11.03;100.00;100558.31;5074648;28;20450;-72
2022/01/01 05:39:02;;;;;;;6.95;3.70;;;;;;;11.07;100.00;100551.84;5074501;28;20420;-71
2022/01/01 05:41:31;;;;;;;7.22;3.33;;;;;;;11.00;100.00;100549.59;5074151;28;20040;-71
2022/01/01 05:43:59;;;;;;;6.82;3.58;;;;;;;11.30;100.00;100573.69;5074386;28;20131;-71
2022/01/01 05:46:30;;;;;;;7.88;3.40;;;;;;;11.34;100.00;100564.53;5073703;28;20044;-71
2022/01/01 05:48:58;;;;;;;6.05;3.10;;;;;;;11.32;100.00;100564.63;5072916;28;20060;-71
2022/01/01 05:51:26;;;;;;;6.57;3.35;;;;;;;11.20;100.00;100570.69;5073641;28;20051;-71
2022/01/01 05:53:54;;;;;;;7.25;3.30;;;;;;;11.25;100.00;100583.78;5073849;28;20055;-71
2022/01/01 05:56:23;;;;;;;6.13;2.95;;;;;;;11.25;100.00;100594.44;5073662;28;20044;-71
2022/01/01 05:58:52;;;;;;;7.75;3.22;;;;;;;11.38;100.00;100596.31;5074423;28;20120;-71
2022/01/01 06:01:21;;;;;;;5.53;3.00;;;;;;;11.30;100.00;100597.72;5073570;28;20074;-71
2022/01/01 06:03:49;;;;;;;6.32;3.17;;;;;;;11.29;100.00;100612.00;5074231;28;20036;-71
2022/01/01 06:06:17;;;;;;;5.70;3.10;;;;;;;11.21;100.00;100612.47;5073534;28;20472;-71
2022/01/01 06:08:59;;;;;;;5.97;2.90;;;;;;;11.04;100.00;100623.25;5073974;28;20036;-71
2022/01/01 06:11:27;;;;;;;4.82;2.67;;;;;;;11.21;100.00;100639.16;5073503;28;20055;-71
2022/01/01 06:13:57;;;;;;;6.82;2.92;;;;;;;11.35;100.00;100638.38;5074072;28;20040;-71
2022/01/01 06:16:25;;;;;;;6.05;3.00;;;;;;;11.13;100.00;100638.75;5073129;28;20048;-72
2022/01/01 06:18:54;;;;;;;8.30;3.15;;;;;;;11.12;100.00;100634.34;5073474;28;20047;-72
2022/01/01 06:21:22;;;;;;;5.57;2.92;;;;;;;11.04;100.00;100634.78;5073432;28;20086;-73
2022/01/01 06:23:50;;;;;;;4.93;2.78;;;;;;;11.15;100.00;100631.50;5073637;28;20044;-74
2022/01/01 06:26:18;;;;;;;5.40;2.72;;;;;;;11.16;100.00;100639.41;5073244;28;20436;-75
2022/01/01 06:28:47;;;;;;;5.53;3.10;;;;;;;10.94;100.00;100638.03;5073398;28;20115;-75
2022/01/01 06:31:16;;;;;;;6.05;2.83;;;;;;;10.86;100.00;100652.66;5073143;28;20040;-73
2022/01/01 06:33:45;;;;;;;5.78;2.78;;;;;;;10.69;100.00;100650.06;5073440;28;20106;-73
2022/01/01 06:36:15;;;;;;;6.25;3.28;;;;;;;10.54;100.00;100646.41;5073224;28;20540;-72
2022/01/01 06:38:45;;;;;;;5.88;2.88;;;;;;;10.73;100.00;100645.44;5073104;28;20048;-72
2022/01/01 06:41:15;;;;;;;5.65;3.20;;;;;;;10.99;100.00;100652.84;5072971;28;20043;-72
2022/01/01 06:43:46;;;;;;;5.43;3.05;;;;;;;10.83;100.00;100650.19;5073403;28;20044;-72
2022/01/01 06:46:18;;;;;;;7.68;2.97;;;;;;;11.04;100.00;100649.94;5072997;28;20052;-73
2022/01/01 06:48:51;;;;;;;5.60;2.92;;;;;;;10.89;100.00;100663.16;5072829;28;20044;-72
2022/01/01 06:51:25;;;;;;;5.70;2.97;;;;;;;10.64;100.00;100659.25;5073178;28;20037;-72
2022/01/01 06:53:53;;;;;;;6.90;3.20;;;;;;;10.42;100.00;100657.75;5072740;28;20056;-72
2022/01/01 06:56:21;;;;;;;4.75;2.90;;;;;;;10.69;100.00;100666.06;5072515;28;20139;-72
2022/01/01 06:58:49;;;;;;;6.47;3.10;;;;;;;10.42;100.00;100663.09;5073286;28;20052;-72
2022/01/01 07:01:19;;;;;;;6.00;3.15;;;;;;;10.35;100.00;100663.50;5072330;28;20051;-73
2022/01/01 07:03:47;;;;;;;6.72;3.20;;;;;;;10.35;100.00;100666.16;5072922;28;20402;-72
2022/01/01 07:06:16;;;;;;;6.18;2.92;;;;;;;10.29;100.00;100667.31;5072593;28;20039;-73
2022/01/01 07:08:44;;;;;;;6.38;3.15;;;;;;;10.18;100.00;100669.66;5072734;28;20041;-73
2022/01/01 07:11:12;;;;;;;5.30;2.92;;;;;;;10.58;100.00;100679.13;5072334;28;20121;-74
2022/01/01 07:13:41;;;;;;;5.38;2.70;;;;;;;11.03;100.00;100674.91;5072656;28;20049;-73
2022/01/01 07:16:09;;;;;;;5.07;2.97;;;;;;;11.41;100.00;100670.94;5072674;28;20048;-73
2022/01/01 07:18:39;;;;;;;5.18;2.63;;;;;;;11.28;100.00;100680.59;5072285;28;20123;-73
2022/01/01 07:21:07;;;;;;;6.15;3.08;;;;;;;11.28;100.00;100672.56;5072613;28;20090;-72
2022/01/01 07:23:35;;;;;;;4.40;2.70;;;;;;;11.08;100.00;100680.84;5072391;28;20436;-72
2022/01/01 07:26:04;;;;;;;5.68;2.80;;;;;;;10.91;100.00;100691.59;5072238;28;20149;-72
2022/01/01 07:28:32;;;;;;;5.38;3.13;;;;;;;11.02;100.00;100689.19;5071323;28;20048;-73
2022/01/01 07:31:01;;;;;;;7.68;3.28;;;;;;;11.21;100.00;100695.25;5072505;28;20036;-72
2022/01/01 07:33:29;;;;;;;6.43;2.78;;;;;;;11.23;100.00;100693.34;5071963;28;20127;-72
2022/01/01 07:35:59;;;;;;;5.75;2.80;;;;;;;11.25;100.00;100695.94;5072206;28;20076;-72
2022/01/01 07:38:27;;;;;;;5.00;2.47;;;;;;;11.21;100.00;100699.72;5071875;28;20044;-72
2022/01/01 07:40:55;;;;;;;7.60;2.70;;;;;;;11.43;100.00;100705.56;5071850;28;20087;-72
2022/01/01 07:43:24;;;;;;;4.68;2.58;;;;;;;11.49;100.00;100696.38;5071595;28;20509;-72
2022/01/01 07:45:52;;;;;;;5.63;3.13;;;;;;;11.35;100.00;100713.16;5072249;28;20045;-72
2022/01/01 07:48:21;;;;;;;6.53;2.85;;;;;;;11.45;100.00;100717.88;5071699;28;20044;-72
2022/01/01 07:50:49;;;;;;;5.00;2.83;;;;;;;11.33;100.00;100712.38;5072323;28;20462;-71
2022/01/01 07:53:19;;;;;;;5.18;2.58;;;;;;;11.29;100.00;100713.47;5071514;28;20037;-73
2022/01/01 07:55:47;;;;;;;5.03;2.67;;;;;;;11.45;100.00;100711.69;5072349;28;20040;-71
2022/01/01 07:58:15;;;;;;;5.00;2.40;;;;;;;11.39;100.00;100709.38;5071587;28;20056;-71
2022/01/01 08:00:43;;;;;;;7.07;2.95;;;;;;;11.38;100.00;100711.16;5072051;28;20068;-71
2022/01/01 08:03:12;;;;;;;5.57;2.53;;;;;;;11.44;100.00;100699.28;5072014;28;20127;-71
2022/01/01 08:05:41;;;;;;;5.38;2.50;;;;;;;11.43;100.00;100706.44;5071609;28;20090;-71
2022/01/01 08:08:09;;;;;;;5.93;2.90;;;;;;;11.49;100.00;100704.38;5071999;28;20071;-71
2022/01/01 08:10:39;;;;;;;6.65;3.03;;;;;;;11.51;100.00;100710.50;5071465;28;20037;-72
2022/01/01 08:13:09;;;;;;;6.07;2.97;;;;;;;11.55;100.00;100702.19;5072108;28;20366;-73
2022/01/01 08:15:37;;;;;;;5.13;2.75;;;;;;;11.53;100.00;100700.56;5071265;28;20049;-71
2022/01/01 08:18:06;;;;;;;5.85;2.65;;;;;;;11.54;100.00;100692.47;5071804;28;20153;-71
2022/01/01 08:20:38;;;;;;;5.82;3.08;;;;;;;11.55;100.00;100698.66;5071282;28;20055;-71
2022/01/01 08:23:07;;;;;;;4.35;2.50;;;;;;;11.53;100.00;100695.22;5071999;28;20434;-71
2022/01/01 08:25:35;;;;;;;5.05;2.63;;;;;;;11.52;100.00;100704.19;5071421;28;20040;-72
2022/01/01 08:28:06;;;;;;;7.28;2.85;;;;;;;11.49;100.00;100707.06;5071674;28;20040;-71
2022/01/01 08:30:35;;;;;;;4.32;2.30;;;;;;;11.49;100.00;100707.06;5071292;28;20468;-71
2022/01/01 08:33:03;;;;;;;6.95;2.85;;;;;;;11.49;100.00;100715.06;5071571;28;20055;-71
2022/01/01 08:35:33;;;;;;;5.35;2.35;;;;;;;11.50;100.00;100708.78;5071221;28;20048;-72
2022/01/01 08:38:04;;;;;;;5.72;2.90;;;;;;;11.44;100.00;100712.63;5072043;28;20040;-72
2022/01/01 08:40:33;;;;;;;6.18;2.95;;;;;;;11.53;100.00;100728.16;5075507;28;20066;-72
2022/01/01 08:43:02;;;;;;;5.47;3.15;;;;;;;11.53;100.00;100732.63;5075514;28;20037;-72
2022/01/01 08:45:37;;;;;;;6.78;2.70;;;;;;;11.58;100.00;100735.88;5075499;28;20041;-72
2022/01/01 08:48:06;;;;;;;4.55;2.55;;;;;;;11.60;100.00;100745.56;5075432;28;20085;-72
2022/01/01 08:50:35;;;;;;;5.88;3.10;;;;;;;11.62;100.00;100726.78;5075209;28;20040;-70
2022/01/01 08:53:03;;;;;;;6.45;3.00;;;;;;;11.62;100.00;100729.44;5075300;28;20385;-71
2022/01/01 08:55:32;;;;;;;5.63;2.65;;;;;;;11.65;100.00;100731.94;5075155;28;20067;-71
2022/01/01 08:58:01;;;;;;;5.95;2.63;;;;;;;11.73;100.00;100730.53;5075467;28;20489;-69
2022/01/01 09:00:50;;;;;;;6.43;3.22;;;;;;;11.75;100.00;100738.47;5075089;28;20045;-71
2022/01/01 09:03:19;;;;;;;7.85;3.67;;;;;;;11.82;100.00;100747.03;5075157;28;20140;-72
2022/01/01 09:05:48;;;;;;;5.35;3.00;;;;;;;11.90;100.00;100756.34;5075274;28;20044;-71
2022/01/01 09:08:34;;;;;;;5.63;2.90;;;;;;;11.86;100.00;100761.94;5074648;28;20042;-70
2022/01/01 09:11:02;;;;;;;5.53;2.58;;;;;;;11.90;100.00;100763.50;5074774;28;20098;-71
2022/01/01 09:13:32;;;;;;;6.25;3.20;;;;;;;11.92;100.00;100765.13;5074530;28;20138;-73
2022/01/01 09:16:02;;;;;;;4.75;2.83;;;;;;;11.94;100.00;100768.56;5075257;28;20067;-72
2022/01/01 09:18:31;;;;;;;6.20;3.47;;;;;;;12.02;100.00;100779.69;5073527;28;20139;-73
2022/01/01 09:20:59;;;;;;;5.93;3.13;;;;;;;11.99;100.00;100774.53;5074881;28;20486;-73
2022/01/01 09:23:27;;;;;;;5.30;2.80;;;;;;;11.94;100.00;100770.38;5074679;28;20074;-74
2022/01/01 09:25:56;;;;;;;6.80;3.00;;;;;;;11.92;100.00;100786.53;5074615;28;20058;-71
2022/01/01 09:28:24;;;;;;;7.22;3.15;;;;;;;11.85;100.00;100763.75;5074229;28;20432;-74
2022/01/01 09:30:52;;;;;;;4.40;2.22;;;;;;;11.74;100.00;100763.47;5074509;28;20450;-72
2022/01/01 09:33:24;;;;;;;6.03;2.90;;;;;;;11.62;100.00;100770.38;5074787;28;20044;-71
2022/01/01 09:35:53;;;;;;;6.38;3.20;;;;;;;11.62;100.00;100788.22;5074774;28;20051;-71
2022/01/01 09:38:21;;;;;;;8.38;2.92;;;;;;;11.60;100.00;100774.09;5074675;28;20048;-71
2022/01/01 09:40:50;;;;;;;5.88;3.03;;;;;;;11.58;100.00;100783.97;5074063;28;20496;-70
2022/01/01 09:43:21;;;;;;;7.90;3.78;;;;;;;11.58;100.00;100781.31;5074517;28;20490;-70
2022/01/01 09:45:50;;;;;;;6.88;3.25;;;;;;;11.57;100.00;100782.25;5074346;28;20416;-71
2022/01/01 09:48:21;;;;;;;6.65;3.50;;;;;;;11.61;100.00;100781.16;5074140;28;20045;-71
2022/01/01 09:50:54;;;;;;;6.65;3.20;;;;;;;11.66;100.00;100787.09;5073094;28;20139;-71
2022/01/01 09:53:23;;;;;;;5.20;2.85;;;;;;;11.61;100.00;100774.00;5073925;28;20040;-71
2022/01/01 09:55:52;;;;;;;6.93;3.65;;;;;;;11.54;100.00;100783.31;5074098;28;20041;-72
2022/01/01 09:58:22;;;;;;;7.28;3.53;;;;;;;11.51;100.00;100786.16;5072846;28;20054;-70
2022/01/01 10:00:52;;;;;;;6.68;3.60;;;;;;;11.49;100.00;100785.38;5073483;28;20063;-69
2022/01/01 10:03:28;;;;;;;6.53;3.35;;;;;;;11.51;100.00;100799.50;5074294;28;20048;-70
2022/01/01 10:05:59;;;;;;;6.85;3.20;;;;;;;11.45;100.00;100790.00;5074135;28;20110;-70
2022/01/01 10:08:28;;;;;;;7.88;3.53;;;;;;;11.49;100.00;100796.06;5072426;28;20060;-73
2022/01/01 10:10:57;;;;;;;8.27;3.65;;;;;;;11.51;100.00;100806.66;5075796;28;20071;-71
2022/01/01 10:13:33;;;;;;;6.82;3.65;;;;;;;11.61;100.00;100794.53;5073609;28;20048;-72
2022/01/01 10:16:03;;;;;;;6.18;3.45;;;;;;;11.55;100.00;100800.19;5073726;28;20138;-74
2022/01/01 10:18:35;;;;;;;6.00;3.42;;;;;;;11.58;100.00;100789.31;5073211;28;20490;-74
2022/01/01 10:21:08;;;;;;;6.45;3.17;;;;;;;11.63;100.00;100787.28;5074010;28;20049;-73
2022/01/01 10:23:37;;;;;;;;;;;;;;;11.68;100.00;100779.88;5074209;28;20044;-72
2022/01/01 10:29:10;;;;;;;5.97;2.90;;;;;;;11.73;100.00;100772.44;5073662;28;20127;-74
2022/01/01 10:31:40;;;;;;;6.03;3.45;;;;;;;11.77;100.00;100787.34;5072865;28;20413;-74
2022/01/01 10:34:15;;;;;;;8.00;3.67;;;;;;;11.82;100.00;100798.69;5089136;28;20139;-74
2022/01/01 10:36:48;;;;;;;7.65;3.75;;;;;;;11.88;100.00;100803.69;5073103;28;20492;-75
2022/01/01 10:39:19;;;;;;;6.80;3.75;;;;;;;11.99;100.00;100806.63;5073351;28;20425;-71
2022/01/01 10:41:50;;;;;;;6.32;2.92;;;;;;;12.07;100.00;100791.94;5072577;28;20066;-73
2022/01/01 10:44:23;;;;;;;6.60;3.50;;;;;;;12.13;100.00;100796.91;5072766;28;20478;-71
2022/01/01 10:46:52;;;;;;;5.63;3.13;;;;;;;12.15;100.00;100803.91;5072755;28;20064;-71
2022/01/01 10:49:39;;;;;;;7.20;3.35;;;;;;;12.22;100.00;100796.38;5073054;28;20045;-71
2022/01/01 10:52:28;;;;;;;6.53;3.35;;;;;;;12.25;100.00;100801.56;5072742;28;20048;-73
2022/01/01 10:54:58;;;;;;;6.03;3.40;;;;;;;12.38;100.00;100797.22;5072939;28;20041;-72
2022/01/01 10:57:33;;;;;;;4.68;2.47;;;;;;;12.47;100.00;100802.03;5072773;28;20053;-72
2022/01/01 11:00:14;;;;;;;6.85;3.40;;;;;;;12.51;100.00;100803.56;5073123;28;20047;-74
2022/01/01 11:02:45;;;;;;;8.07;3.28;;;;;;;12.58;100.00;100798.72;5071463;28;20113;-71
2022/01/01 11:05:13;;;;;;;7.63;3.20;;;;;;;12.68;100.00;100804.38;5072610;28;20040;-72
2022/01/01 11:07:52;;;;;;;6.68;3.03;;;;;;;12.62;100.00;100800.25;5072303;28;20137;-73
2022/01/01 11:10:23;;;;;;;6.00;2.95;;;;;;;12.56;100.00;100806.84;5072548;28;20041;-73
2022/01/01 11:12:51;;;;;;;6.20;3.25;;;;;;;12.58;100.00;100812.09;5072495;28;20132;-72
2022/01/01 11:15:21;;;;;;;5.60;2.75;;;;;;;12.53;100.00;100808.81;5072732;28;20082;-73
2022/01/01 11:17:50;;;;;;;4.35;1.90;;;;;;;12.54;100.00;100797.16;5072263;28;20048;-71
2022/01/01 11:20:19;;;;;;;6.60;3.20;;;;;;;12.51;100.00;100786.66;5072437;28;20037;-72
2022/01/01 11:22:48;;;;;;;6.55;3.47;;;;;;;12.58;100.00;100788.00;5072428;28;20036;-73
2022/01/01 11:25:19;;;;;;;5.45;3.00;;;;;;;12.56;100.00;100789.91;5072681;28;20052;-72
2022/01/01 11:27:47;;;;;;;5.13;3.05;;;;;;;12.59;100.00;100798.63;5072272;28;20048;-74
2022/01/01 11:30:17;;;;;;;5.07;2.85;;;;;;;12.56;100.00;100795.28;5072313;28;20411;-71